sensor_id;sensor_type;location;lat;lon;timestamp;P1;durP1;ratioP1;P2;durP2;ratioP2
61096;SDS011;46977;50.936;6.908;2023-04-25T00:01:18;3.75;;;2.75;;
61096;SDS011;46977;50.936;6.908;2023-04-25T00:04:20;4.63;;;2.53;;
61096;SDS011;46977;50.936;6.908;2023-04-25T00:07:26;8.57;;;2.20;;
61096;SDS011;46977;50.936;6.908;2023-04-25T00:10:28;5.60;;;2.05;;
61096;SDS011;46977;50.936;6.908;2023-04-25T00:13:31;5.63;;;2.22;;
61096;SDS011;46977;50.936;6.908;2023-04-25T00:16:34;4.82;;;2.03;;
61096;SDS011;46977;50.936;6.908;2023-04-25T00:19:37;7.03;;;3.00;;
61096;SDS011;46977;50.936;6.908;2023-04-25T00:22:41;9.45;;;3.30;;
61096;SDS011;46977;50.936;6.908;2023-04-25T00:25:43;5.65;;;2.58;;
61096;SDS011;46977;50.936;6.908;2023-04-25T00:28:46;11.63;;;2.38;;
61096;SDS011;46977;50.936;6.908;2023-04-25T00:31:49;6.20;;;2.33;;
61096;SDS011;46977;50.936;6.908;2023-04-25T00:34:51;6.25;;;2.78;;
61096;SDS011;46977;50.936;6.908;2023-04-25T00:37:55;8.25;;;2.28;;
61096;SDS011;46977;50.936;6.908;2023-04-25T00:40:58;7.63;;;3.25;;
61096;SDS011;46977;50.936;6.908;2023-04-25T00:44:00;6.28;;;2.10;;
61096;SDS011;46977;50.936;6.908;2023-04-25T00:47:03;8.52;;;2.78;;
61096;SDS011;46977;50.936;6.908;2023-04-25T00:50:07;6.90;;;2.35;;
61096;SDS011;46977;50.936;6.908;2023-04-25T00:53:11;5.00;;;2.15;;
61096;SDS011;46977;50.936;6.908;2023-04-25T00:56:13;7.18;;;3.00;;
61096;SDS011;46977;50.936;6.908;2023-04-25T00:59:16;4.88;;;1.95;;
61096;SDS011;46977;50.936;6.908;2023-04-25T01:02:20;12.98;;;3.22;;
61096;SDS011;46977;50.936;6.908;2023-04-25T01:05:23;8.02;;;2.70;;
61096;SDS011;46977;50.936;6.908;2023-04-25T01:08:27;9.73;;;2.45;;
61096;SDS011;46977;50.936;6.908;2023-04-25T01:11:30;6.07;;;2.22;;
61096;SDS011;46977;50.936;6.908;2023-04-25T01:14:32;6.82;;;2.65;;
61096;SDS011;46977;50.936;6.908;2023-04-25T01:17:35;7.00;;;2.25;;
61096;SDS011;46977;50.936;6.908;2023-04-25T01:20:41;4.68;;;2.88;;
61096;SDS011;46977;50.936;6.908;2023-04-25T01:23:45;12.07;;;3.45;;
61096;SDS011;46977;50.936;6.908;2023-04-25T01:26:47;5.15;;;2.40;;
61096;SDS011;46977;50.936;6.908;2023-04-25T01:29:56;9.60;;;2.22;;
61096;SDS011;46977;50.936;6.908;2023-04-25T01:32:59;12.77;;;3.30;;
61096;SDS011;46977;50.936;6.908;2023-04-25T01:36:03;4.53;;;2.25;;
61096;SDS011;46977;50.936;6.908;2023-04-25T01:39:10;9.35;;;2.45;;
61096;SDS011;46977;50.936;6.908;2023-04-25T01:42:13;5.68;;;2.80;;
61096;SDS011;46977;50.936;6.908;2023-04-25T01:45:15;7.57;;;2.40;;
61096;SDS011;46977;50.936;6.908;2023-04-25T01:48:18;6.18;;;2.53;;
61096;SDS011;46977;50.936;6.908;2023-04-25T01:51:22;9.05;;;3.55;;
61096;SDS011;46977;50.936;6.908;2023-04-25T01:54:25;7.85;;;3.38;;
61096;SDS011;46977;50.936;6.908;2023-04-25T01:57:28;7.80;;;2.83;;
61096;SDS011;46977;50.936;6.908;2023-04-25T02:00:30;6.80;;;3.20;;
61096;SDS011;46977;50.936;6.908;2023-04-25T02:03:33;10.57;;;3.10;;
61096;SDS011;46977;50.936;6.908;2023-04-25T02:06:38;13.40;;;2.67;;
61096;SDS011;46977;50.936;6.908;2023-04-25T02:09:43;8.30;;;2.75;;
61096;SDS011;46977;50.936;6.908;2023-04-25T02:12:46;8.38;;;2.42;;
61096;SDS011;46977;50.936;6.908;2023-04-25T02:16:10;10.75;;;2.50;;
61096;SDS011;46977;50.936;6.908;2023-04-25T02:19:13;6.32;;;2.50;;
61096;SDS011;46977;50.936;6.908;2023-04-25T02:22:15;7.40;;;2.90;;
61096;SDS011;46977;50.936;6.908;2023-04-25T02:25:19;7.18;;;3.20;;
61096;SDS011;46977;50.936;6.908;2023-04-25T02:28:23;8.27;;;2.92;;
61096;SDS011;46977;50.936;6.908;2023-04-25T02:31:25;7.43;;;2.35;;
61096;SDS011;46977;50.936;6.908;2023-04-25T02:34:28;12.18;;;2.35;;
61096;SDS011;46977;50.936;6.908;2023-04-25T02:37:30;5.93;;;2.63;;
61096;SDS011;46977;50.936;6.908;2023-04-25T02:40:34;7.30;;;3.05;;
61096;SDS011;46977;50.936;6.908;2023-04-25T02:43:36;8.57;;;2.33;;
61096;SDS011;46977;50.936;6.908;2023-04-25T02:46:38;7.32;;;2.45;;
61096;SDS011;46977;50.936;6.908;2023-04-25T02:49:41;5.25;;;1.95;;
61096;SDS011;46977;50.936;6.908;2023-04-25T02:52:44;5.10;;;2.08;;
61096;SDS011;46977;50.936;6.908;2023-04-25T02:55:52;6.38;;;2.35;;
61096;SDS011;46977;50.936;6.908;2023-04-25T02:58:55;5.25;;;2.08;;
61096;SDS011;46977;50.936;6.908;2023-04-25T03:01:57;11.60;;;3.08;;
61096;SDS011;46977;50.936;6.908;2023-04-25T03:05:00;8.48;;;2.33;;
61096;SDS011;46977;50.936;6.908;2023-04-25T03:08:03;6.07;;;2.10;;
61096;SDS011;46977;50.936;6.908;2023-04-25T03:11:13;6.60;;;1.92;;
61096;SDS011;46977;50.936;6.908;2023-04-25T03:14:16;7.93;;;2.30;;
61096;SDS011;46977;50.936;6.908;2023-04-25T03:17:18;5.72;;;2.28;;
61096;SDS011;46977;50.936;6.908;2023-04-25T03:20:21;7.43;;;1.58;;
61096;SDS011;46977;50.936;6.908;2023-04-25T03:23:24;4.97;;;2.17;;
61096;SDS011;46977;50.936;6.908;2023-04-25T03:26:27;7.65;;;2.65;;
61096;SDS011;46977;50.936;6.908;2023-04-25T03:29:30;5.05;;;2.10;;
61096;SDS011;46977;50.936;6.908;2023-04-25T03:32:35;8.93;;;3.25;;
61096;SDS011;46977;50.936;6.908;2023-04-25T03:35:37;6.95;;;2.78;;
61096;SDS011;46977;50.936;6.908;2023-04-25T03:38:40;7.22;;;2.47;;
61096;SDS011;46977;50.936;6.908;2023-04-25T03:41:49;5.80;;;2.40;;
61096;SDS011;46977;50.936;6.908;2023-04-25T03:44:53;7.22;;;2.22;;
61096;SDS011;46977;50.936;6.908;2023-04-25T03:47:55;6.63;;;2.47;;
61096;SDS011;46977;50.936;6.908;2023-04-25T03:50:58;5.68;;;2.42;;
61096;SDS011;46977;50.936;6.908;2023-04-25T03:54:01;6.03;;;2.22;;
61096;SDS011;46977;50.936;6.908;2023-04-25T03:57:08;5.10;;;2.30;;
61096;SDS011;46977;50.936;6.908;2023-04-25T04:00:13;6.53;;;3.08;;
61096;SDS011;46977;50.936;6.908;2023-04-25T04:03:16;13.77;;;3.00;;
61096;SDS011;46977;50.936;6.908;2023-04-25T04:06:19;15.73;;;4.10;;
61096;SDS011;46977;50.936;6.908;2023-04-25T04:09:32;5.82;;;2.95;;
61096;SDS011;46977;50.936;6.908;2023-04-25T04:12:39;5.32;;;2.55;;
61096;SDS011;46977;50.936;6.908;2023-04-25T04:15:41;7.15;;;2.50;;
61096;SDS011;46977;50.936;6.908;2023-04-25T04:18:44;6.40;;;2.20;;
61096;SDS011;46977;50.936;6.908;2023-04-25T04:21:47;8.77;;;2.85;;
61096;SDS011;46977;50.936;6.908;2023-04-25T04:24:50;6.57;;;2.80;;
61096;SDS011;46977;50.936;6.908;2023-04-25T04:28:11;6.40;;;2.15;;
61096;SDS011;46977;50.936;6.908;2023-04-25T04:31:25;8.18;;;2.08;;
61096;SDS011;46977;50.936;6.908;2023-04-25T04:34:28;7.22;;;2.70;;
61096;SDS011;46977;50.936;6.908;2023-04-25T04:37:31;7.07;;;2.10;;
61096;SDS011;46977;50.936;6.908;2023-04-25T04:40:34;6.07;;;2.45;;
61096;SDS011;46977;50.936;6.908;2023-04-25T04:43:58;9.02;;;2.47;;
61096;SDS011;46977;50.936;6.908;2023-04-25T04:47:09;10.23;;;3.50;;
61096;SDS011;46977;50.936;6.908;2023-04-25T04:50:30;4.65;;;2.03;;
61096;SDS011;46977;50.936;6.908;2023-04-25T04:54:03;8.35;;;3.20;;
61096;SDS011;46977;50.936;6.908;2023-04-25T04:57:19;3.67;;;1.98;;
61096;SDS011;46977;50.936;6.908;2023-04-25T05:04:04;6.53;;;2.58;;
61096;SDS011;46977;50.936;6.908;2023-04-25T05:07:27;8.55;;;2.30;;
61096;SDS011;46977;50.936;6.908;2023-04-25T05:10:41;7.82;;;2.72;;
61096;SDS011;46977;50.936;6.908;2023-04-25T05:14:07;11.57;;;4.20;;
61096;SDS011;46977;50.936;6.908;2023-04-25T05:17:25;9.88;;;2.53;;
61096;SDS011;46977;50.936;6.908;2023-04-25T05:20:37;5.57;;;2.70;;
61096;SDS011;46977;50.936;6.908;2023-04-25T05:24:02;7.75;;;3.55;;
61096;SDS011;46977;50.936;6.908;2023-04-25T05:27:23;4.65;;;2.40;;
61096;SDS011;46977;50.936;6.908;2023-04-25T05:30:51;7.63;;;2.20;;
61096;SDS011;46977;50.936;6.908;2023-04-25T05:34:02;8.70;;;2.97;;
61096;SDS011;46977;50.936;6.908;2023-04-25T05:40:37;7.03;;;3.22;;
61096;SDS011;46977;50.936;6.908;2023-04-25T05:43:46;8.60;;;4.13;;
61096;SDS011;46977;50.936;6.908;2023-04-25T05:47:17;6.20;;;2.57;;
61096;SDS011;46977;50.936;6.908;2023-04-25T05:50:44;10.07;;;2.78;;
61096;SDS011;46977;50.936;6.908;2023-04-25T05:54:08;10.75;;;2.83;;
61096;SDS011;46977;50.936;6.908;2023-04-25T05:57:17;6.70;;;2.40;;
61096;SDS011;46977;50.936;6.908;2023-04-25T06:00:22;9.32;;;3.47;;
61096;SDS011;46977;50.936;6.908;2023-04-25T06:03:25;6.75;;;2.05;;
61096;SDS011;46977;50.936;6.908;2023-04-25T06:06:29;9.63;;;3.03;;
61096;SDS011;46977;50.936;6.908;2023-04-25T06:09:33;7.40;;;2.40;;
61096;SDS011;46977;50.936;6.908;2023-04-25T06:12:37;7.07;;;2.30;;
61096;SDS011;46977;50.936;6.908;2023-04-25T06:15:40;9.00;;;2.38;;
61096;SDS011;46977;50.936;6.908;2023-04-25T06:18:42;11.25;;;2.53;;
61096;SDS011;46977;50.936;6.908;2023-04-25T06:21:46;5.47;;;2.30;;
61096;SDS011;46977;50.936;6.908;2023-04-25T06:24:48;6.72;;;2.88;;
61096;SDS011;46977;50.936;6.908;2023-04-25T06:27:51;9.10;;;2.22;;
61096;SDS011;46977;50.936;6.908;2023-04-25T06:30:53;9.20;;;2.20;;
61096;SDS011;46977;50.936;6.908;2023-04-25T06:33:57;9.02;;;2.65;;
61096;SDS011;46977;50.936;6.908;2023-04-25T06:37:02;9.15;;;1.70;;
61096;SDS011;46977;50.936;6.908;2023-04-25T06:40:05;5.15;;;1.58;;
61096;SDS011;46977;50.936;6.908;2023-04-25T06:43:09;9.48;;;2.05;;
61096;SDS011;46977;50.936;6.908;2023-04-25T06:46:32;6.72;;;2.00;;
61096;SDS011;46977;50.936;6.908;2023-04-25T06:49:36;7.72;;;3.08;;
61096;SDS011;46977;50.936;6.908;2023-04-25T06:52:41;7.07;;;1.60;;
61096;SDS011;46977;50.936;6.908;2023-04-25T06:55:43;9.30;;;2.00;;
61096;SDS011;46977;50.936;6.908;2023-04-25T06:58:54;8.75;;;1.45;;
61096;SDS011;46977;50.936;6.908;2023-04-25T07:02:11;4.35;;;1.10;;
61096;SDS011;46977;50.936;6.908;2023-04-25T07:05:14;6.88;;;1.75;;
61096;SDS011;46977;50.936;6.908;2023-04-25T07:08:21;7.00;;;1.38;;
61096;SDS011;46977;50.936;6.908;2023-04-25T07:11:24;6.15;;;1.20;;
61096;SDS011;46977;50.936;6.908;2023-04-25T07:14:26;2.92;;;1.08;;
61096;SDS011;46977;50.936;6.908;2023-04-25T07:17:29;7.93;;;1.95;;
61096;SDS011;46977;50.936;6.908;2023-04-25T07:20:32;3.97;;;1.27;;
61096;SDS011;46977;50.936;6.908;2023-04-25T07:23:37;4.15;;;1.17;;
61096;SDS011;46977;50.936;6.908;2023-04-25T07:26:46;5.30;;;1.25;;
61096;SDS011;46977;50.936;6.908;2023-04-25T07:30:09;5.70;;;1.25;;
61096;SDS011;46977;50.936;6.908;2023-04-25T07:33:13;6.88;;;1.90;;
61096;SDS011;46977;50.936;6.908;2023-04-25T07:36:15;7.40;;;1.73;;
61096;SDS011;46977;50.936;6.908;2023-04-25T07:39:21;4.20;;;1.10;;
61096;SDS011;46977;50.936;6.908;2023-04-25T07:42:25;3.53;;;1.35;;
61096;SDS011;46977;50.936;6.908;2023-04-25T07:45:27;5.07;;;1.45;;
61096;SDS011;46977;50.936;6.908;2023-04-25T07:48:30;5.60;;;1.77;;
61096;SDS011;46977;50.936;6.908;2023-04-25T07:51:32;6.57;;;2.03;;
61096;SDS011;46977;50.936;6.908;2023-04-25T07:54:41;5.32;;;2.08;;
61096;SDS011;46977;50.936;6.908;2023-04-25T07:57:50;6.38;;;1.65;;
61096;SDS011;46977;50.936;6.908;2023-04-25T08:00:54;6.38;;;1.83;;
61096;SDS011;46977;50.936;6.908;2023-04-25T08:04:13;4.22;;;1.67;;
61096;SDS011;46977;50.936;6.908;2023-04-25T08:07:25;4.10;;;1.23;;
61096;SDS011;46977;50.936;6.908;2023-04-25T08:10:31;5.65;;;1.50;;
61096;SDS011;46977;50.936;6.908;2023-04-25T08:13:34;5.28;;;1.45;;
61096;SDS011;46977;50.936;6.908;2023-04-25T08:16:38;5.28;;;0.95;;
61096;SDS011;46977;50.936;6.908;2023-04-25T08:19:40;2.75;;;0.80;;
61096;SDS011;46977;50.936;6.908;2023-04-25T08:22:50;7.72;;;1.05;;
61096;SDS011;46977;50.936;6.908;2023-04-25T08:26:20;4.22;;;0.93;;
61096;SDS011;46977;50.936;6.908;2023-04-25T08:29:24;4.45;;;1.48;;
61096;SDS011;46977;50.936;6.908;2023-04-25T08:32:28;6.03;;;2.00;;
61096;SDS011;46977;50.936;6.908;2023-04-25T08:36:10;6.13;;;1.30;;
61096;SDS011;46977;50.936;6.908;2023-04-25T08:39:13;4.93;;;1.70;;
61096;SDS011;46977;50.936;6.908;2023-04-25T08:42:27;4.22;;;1.30;;
61096;SDS011;46977;50.936;6.908;2023-04-25T08:45:33;4.00;;;0.93;;
61096;SDS011;46977;50.936;6.908;2023-04-25T08:48:36;2.63;;;0.82;;
61096;SDS011;46977;50.936;6.908;2023-04-25T08:51:40;3.97;;;1.20;;
61096;SDS011;46977;50.936;6.908;2023-04-25T08:54:51;6.60;;;1.05;;
61096;SDS011;46977;50.936;6.908;2023-04-25T08:57:56;5.32;;;1.25;;
61096;SDS011;46977;50.936;6.908;2023-04-25T09:00:59;3.72;;;0.88;;
61096;SDS011;46977;50.936;6.908;2023-04-25T09:04:07;4.82;;;0.90;;
61096;SDS011;46977;50.936;6.908;2023-04-25T09:07:10;2.78;;;1.27;;
61096;SDS011;46977;50.936;6.908;2023-04-25T09:10:13;2.63;;;0.80;;
61096;SDS011;46977;50.936;6.908;2023-04-25T09:13:23;3.38;;;0.90;;
61096;SDS011;46977;50.936;6.908;2023-04-25T09:16:58;4.53;;;1.17;;
61096;SDS011;46977;50.936;6.908;2023-04-25T09:20:13;4.45;;;1.73;;
61096;SDS011;46977;50.936;6.908;2023-04-25T09:23:15;2.65;;;0.80;;
61096;SDS011;46977;50.936;6.908;2023-04-25T09:26:18;8.13;;;1.52;;
61096;SDS011;46977;50.936;6.908;2023-04-25T09:29:29;2.67;;;1.00;;
61096;SDS011;46977;50.936;6.908;2023-04-25T09:32:33;5.57;;;1.00;;
61096;SDS011;46977;50.936;6.908;2023-04-25T09:35:36;2.88;;;1.52;;
61096;SDS011;46977;50.936;6.908;2023-04-25T09:38:42;2.00;;;0.85;;
61096;SDS011;46977;50.936;6.908;2023-04-25T09:42:02;5.65;;;1.10;;
61096;SDS011;46977;50.936;6.908;2023-04-25T09:45:07;3.85;;;1.10;;
61096;SDS011;46977;50.936;6.908;2023-04-25T09:48:18;3.75;;;0.85;;
61096;SDS011;46977;50.936;6.908;2023-04-25T09:51:25;3.25;;;1.00;;
61096;SDS011;46977;50.936;6.908;2023-04-25T09:54:28;5.63;;;1.30;;
61096;SDS011;46977;50.936;6.908;2023-04-25T09:57:42;2.05;;;0.85;;
61096;SDS011;46977;50.936;6.908;2023-04-25T10:00:46;4.07;;;0.73;;
61096;SDS011;46977;50.936;6.908;2023-04-25T10:04:00;4.65;;;0.80;;
61096;SDS011;46977;50.936;6.908;2023-04-25T10:07:14;5.95;;;1.00;;
61096;SDS011;46977;50.936;6.908;2023-04-25T10:10:19;3.67;;;1.27;;
61096;SDS011;46977;50.936;6.908;2023-04-25T10:13:21;3.25;;;1.25;;
61096;SDS011;46977;50.936;6.908;2023-04-25T10:16:26;3.55;;;1.00;;
61096;SDS011;46977;50.936;6.908;2023-04-25T10:19:29;6.18;;;1.25;;
61096;SDS011;46977;50.936;6.908;2023-04-25T10:22:32;4.82;;;0.98;;
61096;SDS011;46977;50.936;6.908;2023-04-25T10:25:36;8.50;;;0.88;;
61096;SDS011;46977;50.936;6.908;2023-04-25T10:28:57;6.20;;;1.00;;
61096;SDS011;46977;50.936;6.908;2023-04-25T10:32:02;4.22;;;0.93;;
61096;SDS011;46977;50.936;6.908;2023-04-25T10:35:12;3.17;;;0.85;;
61096;SDS011;46977;50.936;6.908;2023-04-25T10:38:15;6.90;;;1.63;;
61096;SDS011;46977;50.936;6.908;2023-04-25T10:41:18;6.07;;;0.90;;
61096;SDS011;46977;50.936;6.908;2023-04-25T10:44:21;4.90;;;0.90;;
61096;SDS011;46977;50.936;6.908;2023-04-25T10:47:34;4.70;;;0.95;;
61096;SDS011;46977;50.936;6.908;2023-04-25T10:50:37;3.03;;;0.70;;
61096;SDS011;46977;50.936;6.908;2023-04-25T10:53:40;5.05;;;0.90;;
61096;SDS011;46977;50.936;6.908;2023-04-25T10:56:43;4.65;;;1.65;;
61096;SDS011;46977;50.936;6.908;2023-04-25T10:59:46;2.10;;;0.63;;
61096;SDS011;46977;50.936;6.908;2023-04-25T11:02:51;3.80;;;0.88;;
61096;SDS011;46977;50.936;6.908;2023-04-25T11:05:55;3.35;;;0.70;;
61096;SDS011;46977;50.936;6.908;2023-04-25T11:09:00;3.95;;;0.70;;
61096;SDS011;46977;50.936;6.908;2023-04-25T11:12:03;5.28;;;0.77;;
61096;SDS011;46977;50.936;6.908;2023-04-25T11:15:07;4.50;;;1.05;;
61096;SDS011;46977;50.936;6.908;2023-04-25T11:18:15;1.88;;;0.60;;
61096;SDS011;46977;50.936;6.908;2023-04-25T11:21:17;2.30;;;0.60;;
61096;SDS011;46977;50.936;6.908;2023-04-25T11:24:21;3.53;;;0.57;;
61096;SDS011;46977;50.936;6.908;2023-04-25T11:27:27;2.70;;;0.50;;
61096;SDS011;46977;50.936;6.908;2023-04-25T11:30:29;2.30;;;0.70;;
61096;SDS011;46977;50.936;6.908;2023-04-25T11:33:34;1.77;;;0.57;;
61096;SDS011;46977;50.936;6.908;2023-04-25T11:36:38;3.13;;;0.60;;
61096;SDS011;46977;50.936;6.908;2023-04-25T11:39:44;1.08;;;0.47;;
61096;SDS011;46977;50.936;6.908;2023-04-25T11:42:47;1.40;;;0.60;;
61096;SDS011;46977;50.936;6.908;2023-04-25T11:45:50;2.60;;;0.90;;
61096;SDS011;46977;50.936;6.908;2023-04-25T11:48:56;4.10;;;0.60;;
61096;SDS011;46977;50.936;6.908;2023-04-25T11:51:59;2.03;;;0.85;;
61096;SDS011;46977;50.936;6.908;2023-04-25T11:55:03;1.50;;;0.60;;
61096;SDS011;46977;50.936;6.908;2023-04-25T11:58:09;3.60;;;1.15;;
61096;SDS011;46977;50.936;6.908;2023-04-25T12:01:12;1.95;;;0.60;;
61096;SDS011;46977;50.936;6.908;2023-04-25T12:04:16;0.88;;;0.47;;
61096;SDS011;46977;50.936;6.908;2023-04-25T12:07:19;0.95;;;0.57;;
61096;SDS011;46977;50.936;6.908;2023-04-25T12:10:24;1.55;;;0.68;;
61096;SDS011;46977;50.936;6.908;2023-04-25T12:13:28;0.68;;;0.50;;
61096;SDS011;46977;50.936;6.908;2023-04-25T12:16:39;1.73;;;0.45;;
61096;SDS011;46977;50.936;6.908;2023-04-25T12:19:46;1.90;;;0.90;;
61096;SDS011;46977;50.936;6.908;2023-04-25T12:22:49;2.22;;;0.55;;
61096;SDS011;46977;50.936;6.908;2023-04-25T12:25:52;4.22;;;0.98;;
61096;SDS011;46977;50.936;6.908;2023-04-25T12:28:54;1.50;;;0.50;;
61096;SDS011;46977;50.936;6.908;2023-04-25T12:31:56;3.45;;;0.90;;
61096;SDS011;46977;50.936;6.908;2023-04-25T12:35:00;2.13;;;0.60;;
61096;SDS011;46977;50.936;6.908;2023-04-25T12:38:02;1.58;;;0.50;;
61096;SDS011;46977;50.936;6.908;2023-04-25T12:41:05;1.52;;;0.65;;
61096;SDS011;46977;50.936;6.908;2023-04-25T12:44:08;6.97;;;1.00;;
61096;SDS011;46977;50.936;6.908;2023-04-25T12:47:10;0.80;;;0.40;;
61096;SDS011;46977;50.936;6.908;2023-04-25T12:50:14;3.08;;;0.50;;
61096;SDS011;46977;50.936;6.908;2023-04-25T12:53:16;1.20;;;0.57;;
61096;SDS011;46977;50.936;6.908;2023-04-25T12:56:19;1.77;;;0.57;;
61096;SDS011;46977;50.936;6.908;2023-04-25T12:59:25;1.83;;;0.55;;
61096;SDS011;46977;50.936;6.908;2023-04-25T13:02:28;1.42;;;0.95;;
61096;SDS011;46977;50.936;6.908;2023-04-25T13:05:32;2.33;;;0.50;;
61096;SDS011;46977;50.936;6.908;2023-04-25T13:08:34;1.48;;;0.50;;
61096;SDS011;46977;50.936;6.908;2023-04-25T13:11:39;1.73;;;1.10;;
61096;SDS011;46977;50.936;6.908;2023-04-25T13:14:43;2.92;;;0.70;;
61096;SDS011;46977;50.936;6.908;2023-04-25T13:17:45;2.60;;;1.08;;
61096;SDS011;46977;50.936;6.908;2023-04-25T13:20:49;2.25;;;0.75;;
61096;SDS011;46977;50.936;6.908;2023-04-25T13:23:51;3.28;;;0.60;;
61096;SDS011;46977;50.936;6.908;2023-04-25T13:26:54;2.50;;;0.50;;
61096;SDS011;46977;50.936;6.908;2023-04-25T13:29:57;1.58;;;0.70;;
61096;SDS011;46977;50.936;6.908;2023-04-25T13:32:59;2.72;;;0.60;;
61096;SDS011;46977;50.936;6.908;2023-04-25T13:36:06;1.90;;;0.50;;
61096;SDS011;46977;50.936;6.908;2023-04-25T13:39:09;1.15;;;0.47;;
61096;SDS011;46977;50.936;6.908;2023-04-25T13:42:11;2.92;;;0.60;;
61096;SDS011;46977;50.936;6.908;2023-04-25T13:45:14;0.90;;;0.90;;
61096;SDS011;46977;50.936;6.908;2023-04-25T13:48:17;2.08;;;0.40;;
61096;SDS011;46977;50.936;6.908;2023-04-25T13:51:21;2.85;;;0.40;;
61096;SDS011;46977;50.936;6.908;2023-04-25T13:54:23;0.90;;;0.50;;
61096;SDS011;46977;50.936;6.908;2023-04-25T13:57:26;2.22;;;0.40;;
61096;SDS011;46977;50.936;6.908;2023-04-25T14:00:28;2.35;;;0.40;;
61096;SDS011;46977;50.936;6.908;2023-04-25T14:03:30;1.55;;;0.40;;
61096;SDS011;46977;50.936;6.908;2023-04-25T14:06:34;0.85;;;0.32;;
61096;SDS011;46977;50.936;6.908;2023-04-25T14:09:37;1.27;;;0.40;;
61096;SDS011;46977;50.936;6.908;2023-04-25T14:12:39;1.63;;;0.60;;
61096;SDS011;46977;50.936;6.908;2023-04-25T14:15:42;2.90;;;0.68;;
61096;SDS011;46977;50.936;6.908;2023-04-25T14:18:44;0.60;;;0.40;;
61096;SDS011;46977;50.936;6.908;2023-04-25T14:21:48;0.80;;;0.47;;
61096;SDS011;46977;50.936;6.908;2023-04-25T14:24:50;2.35;;;0.50;;
61096;SDS011;46977;50.936;6.908;2023-04-25T14:27:53;1.50;;;0.40;;
61096;SDS011;46977;50.936;6.908;2023-04-25T14:30:56;1.58;;;0.40;;
61096;SDS011;46977;50.936;6.908;2023-04-25T14:33:58;1.75;;;0.15;;
61096;SDS011;46977;50.936;6.908;2023-04-25T14:37:02;1.35;;;0.28;;
61096;SDS011;46977;50.936;6.908;2023-04-25T14:40:05;0.60;;;0.40;;
61096;SDS011;46977;50.936;6.908;2023-04-25T14:47:10;1.07;;;0.43;;
61096;SDS011;46977;50.936;6.908;2023-04-25T14:50:12;2.53;;;0.20;;
61096;SDS011;46977;50.936;6.908;2023-04-25T14:53:16;2.38;;;0.52;;
61096;SDS011;46977;50.936;6.908;2023-04-25T14:56:18;3.50;;;0.68;;
61096;SDS011;46977;50.936;6.908;2023-04-25T14:59:21;1.90;;;0.45;;
61096;SDS011;46977;50.936;6.908;2023-04-25T15:02:24;3.15;;;0.30;;
61096;SDS011;46977;50.936;6.908;2023-04-25T15:05:29;1.58;;;0.40;;
61096;SDS011;46977;50.936;6.908;2023-04-25T15:08:32;2.00;;;0.40;;
61096;SDS011;46977;50.936;6.908;2023-04-25T15:11:35;0.80;;;0.45;;
61096;SDS011;46977;50.936;6.908;2023-04-25T15:14:40;3.13;;;0.63;;
61096;SDS011;46977;50.936;6.908;2023-04-25T15:17:42;3.00;;;0.40;;
61096;SDS011;46977;50.936;6.908;2023-04-25T15:20:45;1.20;;;0.30;;
61096;SDS011;46977;50.936;6.908;2023-04-25T15:23:49;1.23;;;0.30;;
61096;SDS011;46977;50.936;6.908;2023-04-25T15:26:52;2.40;;;0.40;;
61096;SDS011;46977;50.936;6.908;2023-04-25T15:29:54;0.32;;;0.25;;
61096;SDS011;46977;50.936;6.908;2023-04-25T15:32:57;1.38;;;0.35;;
61096;SDS011;46977;50.936;6.908;2023-04-25T15:35:59;1.45;;;0.40;;
61096;SDS011;46977;50.936;6.908;2023-04-25T15:39:03;4.50;;;0.50;;
61096;SDS011;46977;50.936;6.908;2023-04-25T15:42:06;2.15;;;0.88;;
61096;SDS011;46977;50.936;6.908;2023-04-25T15:45:09;0.88;;;0.65;;
61096;SDS011;46977;50.936;6.908;2023-04-25T15:48:13;1.10;;;0.47;;
61096;SDS011;46977;50.936;6.908;2023-04-25T15:51:15;1.33;;;0.50;;
61096;SDS011;46977;50.936;6.908;2023-04-25T15:54:21;2.17;;;0.43;;
61096;SDS011;46977;50.936;6.908;2023-04-25T15:57:24;2.60;;;0.47;;
61096;SDS011;46977;50.936;6.908;2023-04-25T16:00:26;2.17;;;0.50;;
61096;SDS011;46977;50.936;6.908;2023-04-25T16:03:29;4.75;;;0.70;;
61096;SDS011;46977;50.936;6.908;2023-04-25T16:06:34;3.08;;;0.60;;
61096;SDS011;46977;50.936;6.908;2023-04-25T16:09:38;4.32;;;0.70;;
61096;SDS011;46977;50.936;6.908;2023-04-25T16:12:40;3.03;;;0.40;;
61096;SDS011;46977;50.936;6.908;2023-04-25T16:15:43;2.60;;;0.63;;
61096;SDS011;46977;50.936;6.908;2023-04-25T16:18:45;1.63;;;0.38;;
61096;SDS011;46977;50.936;6.908;2023-04-25T16:21:47;1.65;;;0.28;;
61096;SDS011;46977;50.936;6.908;2023-04-25T16:24:53;1.48;;;0.40;;
61096;SDS011;46977;50.936;6.908;2023-04-25T16:27:56;1.40;;;0.38;;
61096;SDS011;46977;50.936;6.908;2023-04-25T16:30:58;1.52;;;0.52;;
61096;SDS011;46977;50.936;6.908;2023-04-25T16:34:01;1.70;;;0.68;;
61096;SDS011;46977;50.936;6.908;2023-04-25T16:37:04;1.98;;;0.40;;
61096;SDS011;46977;50.936;6.908;2023-04-25T16:40:09;0.65;;;0.40;;
61096;SDS011;46977;50.936;6.908;2023-04-25T16:43:12;1.63;;;0.50;;
61096;SDS011;46977;50.936;6.908;2023-04-25T16:46:14;1.33;;;0.40;;
61096;SDS011;46977;50.936;6.908;2023-04-25T16:49:18;1.65;;;0.60;;
61096;SDS011;46977;50.936;6.908;2023-04-25T16:52:21;2.03;;;0.40;;
61096;SDS011;46977;50.936;6.908;2023-04-25T16:55:26;1.40;;;0.50;;
61096;SDS011;46977;50.936;6.908;2023-04-25T16:58:29;4.72;;;0.57;;
61096;SDS011;46977;50.936;6.908;2023-04-25T17:01:31;3.40;;;0.90;;
61096;SDS011;46977;50.936;6.908;2023-04-25T17:04:34;2.00;;;0.50;;
61096;SDS011;46977;50.936;6.908;2023-04-25T17:07:37;1.92;;;0.40;;
61096;SDS011;46977;50.936;6.908;2023-04-25T17:10:41;1.55;;;0.50;;
61096;SDS011;46977;50.936;6.908;2023-04-25T17:13:44;1.27;;;0.50;;
61096;SDS011;46977;50.936;6.908;2023-04-25T17:16:47;3.35;;;1.05;;
61096;SDS011;46977;50.936;6.908;2023-04-25T17:19:51;1.75;;;0.40;;
61096;SDS011;46977;50.936;6.908;2023-04-25T17:22:54;2.10;;;0.70;;
61096;SDS011;46977;50.936;6.908;2023-04-25T17:25:59;4.05;;;0.90;;
61096;SDS011;46977;50.936;6.908;2023-04-25T17:29:02;1.70;;;0.38;;
61096;SDS011;46977;50.936;6.908;2023-04-25T17:32:04;0.68;;;0.52;;
61096;SDS011;46977;50.936;6.908;2023-04-25T17:35:07;3.42;;;0.52;;
61096;SDS011;46977;50.936;6.908;2023-04-25T17:38:10;2.25;;;0.50;;
61096;SDS011;46977;50.936;6.908;2023-04-25T17:41:14;5.53;;;0.50;;
61096;SDS011;46977;50.936;6.908;2023-04-25T17:44:20;1.45;;;0.70;;
61096;SDS011;46977;50.936;6.908;2023-04-25T17:47:22;1.33;;;0.60;;
61096;SDS011;46977;50.936;6.908;2023-04-25T17:50:24;2.05;;;0.60;;
61096;SDS011;46977;50.936;6.908;2023-04-25T17:53:27;2.47;;;0.75;;
61096;SDS011;46977;50.936;6.908;2023-04-25T17:56:32;3.05;;;1.52;;
61096;SDS011;46977;50.936;6.908;2023-04-25T17:59:38;1.73;;;0.90;;
61096;SDS011;46977;50.936;6.908;2023-04-25T18:02:40;3.90;;;0.90;;
61096;SDS011;46977;50.936;6.908;2023-04-25T18:05:42;4.05;;;0.60;;
61096;SDS011;46977;50.936;6.908;2023-04-25T18:08:45;2.45;;;0.50;;
61096;SDS011;46977;50.936;6.908;2023-04-25T18:11:49;1.35;;;0.40;;
61096;SDS011;46977;50.936;6.908;2023-04-25T18:14:53;2.25;;;0.60;;
61096;SDS011;46977;50.936;6.908;2023-04-25T18:17:56;1.25;;;0.60;;
61096;SDS011;46977;50.936;6.908;2023-04-25T18:20:59;2.17;;;0.60;;
61096;SDS011;46977;50.936;6.908;2023-04-25T18:24:06;1.25;;;0.47;;
61096;SDS011;46977;50.936;6.908;2023-04-25T18:27:11;1.73;;;0.93;;
61096;SDS011;46977;50.936;6.908;2023-04-25T18:30:14;0.93;;;0.45;;
61096;SDS011;46977;50.936;6.908;2023-04-25T18:33:16;2.38;;;0.60;;
61096;SDS011;46977;50.936;6.908;2023-04-25T18:36:19;1.90;;;0.50;;
61096;SDS011;46977;50.936;6.908;2023-04-25T18:39:21;1.92;;;0.57;;
61096;SDS011;46977;50.936;6.908;2023-04-25T18:42:26;2.20;;;0.77;;
61096;SDS011;46977;50.936;6.908;2023-04-25T18:45:29;1.95;;;0.60;;
61096;SDS011;46977;50.936;6.908;2023-04-25T18:48:31;0.60;;;0.60;;